Time;durP1;ratioP1;P1;durP2;ratioP2;P2;SDS_P1;SDS_P2;PMS_P1;PMS_P2;Temp;Humidity;BMP_temperature;BMP_pressure;BME280_temperature;BME280_humidity;BME280_pressure;Samples;Min_cycle;Max_cycle;Signal;HPM_P1;HPM_P2
2022/04/13 00:01:23;;;;;;;2.50;1.40;;;;;;;2.81;63.37;98987.62;104470;1284;61045;-27
2022/04/13 00:03:52;;;;;;;2.90;1.40;;;;;;;2.68;63.67;98981.73;104392;1284;62044;-26
2022/04/13 00:06:21;;;;;;;2.40;1.40;;;;;;;2.58;63.94;98986.53;103914;1283;74489;-26
2022/04/13 00:08:50;;;;;;;3.60;1.40;;;;;;;2.46;64.43;98976.30;103847;1284;76184;-26
2022/04/13 00:11:19;;;;;;;5.90;1.40;;;;;;;2.42;64.73;98986.08;104077;1284;74357;-26
2022/04/13 00:13:48;;;;;;;2.60;1.30;;;;;;;2.36;64.84;98990.84;104104;1284;61024;-26
2022/04/13 00:16:16;;;;;;;6.20;1.90;;;;;;;2.30;65.28;98997.64;104159;1284;61120;-26
2022/04/13 00:18:47;;;;;;;2.80;2.10;;;;;;;2.27;65.18;98989.91;104404;1281;72505;-26
2022/04/13 00:21:16;;;;;;;4.30;1.40;;;;;;;2.25;65.40;98984.02;104565;1281;75798;-26
2022/04/13 00:23:44;;;;;;;5.70;2.00;;;;;;;2.25;65.40;98984.84;104495;1281;74402;-26
2022/04/13 00:26:28;;;;;;;2.50;1.50;;;;;;;2.71;64.09;98988.98;104309;1280;61238;-26
2022/04/13 00:28:57;;;;;;;3.90;1.70;;;;;;;2.85;63.36;98994.30;104385;1281;61068;-26
2022/04/13 00:31:25;;;;;;;11.70;1.50;;;;;;;2.81;63.30;98997.02;104202;1280;74427;-26
2022/04/13 00:33:54;;;;;;;2.80;1.20;;;;;;;2.70;63.76;99005.97;104379;1281;76099;-26
2022/04/13 00:36:23;;;;;;;4.00;1.70;;;;;;;2.56;64.08;98999.65;104502;1282;74403;-27
2022/04/13 00:38:51;;;;;;;4.60;1.90;;;;;;;2.39;64.52;98994.65;104567;1280;61163;-28
2022/04/13 00:41:21;;;;;;;4.60;1.40;;;;;;;2.31;64.83;98990.58;104542;1281;62013;-26
2022/04/13 00:44:10;;;;;;;3.30;1.60;;;;;;;2.25;65.16;98995.64;104464;1281;74812;-29
2022/04/13 00:46:40;;;;;;;3.20;1.60;;;;;;;2.19;65.32;98991.63;104480;1284;76251;-28
2022/04/13 00:49:09;;;;;;;5.40;1.70;;;;;;;2.13;65.53;98989.05;104185;1281;74458;-27
2022/04/13 00:51:37;;;;;;;4.20;1.20;;;;;;;2.15;65.48;98987.75;104235;1280;61076;-27
2022/04/13 00:54:06;;;;;;;3.80;1.70;;;;;;;2.10;65.68;98995.33;104234;1281;61246;-27
2022/04/13 00:56:35;;;;;;;4.60;1.00;;;;;;;2.07;65.77;98997.71;104239;1281;74744;-28
2022/04/13 00:59:09;;;;;;;1.70;1.10;;;;;;;2.36;65.02;98997.88;104361;1281;76123;-28
2022/04/13 01:01:38;;;;;;;4.60;1.80;;;;;;;2.55;64.47;98994.70;104311;1284;74251;-27
2022/04/13 01:04:08;;;;;;;5.10;1.60;;;;;;;2.49;64.54;98989.84;104234;1280;61155;-27
2022/04/13 01:06:38;;;;;;;3.00;1.30;;;;;;;2.28;65.29;98989.86;104215;1281;62282;-27
2022/04/13 01:09:07;;;;;;;3.60;1.40;;;;;;;1.97;66.61;98996.63;104389;1281;74761;-27
2022/04/13 01:11:35;;;;;;;3.10;1.70;;;;;;;1.78;67.51;98992.88;104337;1280;76070;-27
2022/04/13 01:14:05;;;;;;;2.50;1.60;;;;;;;1.63;68.04;98989.79;104221;1280;74249;-27
2022/04/13 01:16:49;;;;;;;1.90;1.00;;;;;;;1.53;68.61;98989.53;104083;1283;61056;-27
2022/04/13 01:19:27;;;;;;;4.10;1.80;;;;;;;1.44;69.01;98986.87;104289;1280;61089;-28
2022/04/13 01:22:19;;;;;;;1.80;1.20;;;;;;;1.43;69.13;98988.96;104207;1280;75251;-27
2022/04/13 01:24:48;;;;;;;9.20;1.50;;;;;;;1.79;68.06;98984.77;104317;1280;75004;-27
2022/04/13 01:27:17;;;;;;;3.00;1.70;;;;;;;1.99;67.05;98987.77;104289;1280;74133;-27
2022/04/13 01:29:49;;;;;;;3.20;1.80;;;;;;;1.93;66.99;98988.05;104277;1280;61188;-28
2022/04/13 01:32:18;;;;;;;4.20;1.50;;;;;;;1.79;67.41;98983.61;104459;1281;61160;-28
2022/04/13 01:34:50;;;;;;;2.80;1.20;;;;;;;1.70;67.78;98982.62;104636;1280;74511;-27
2022/04/13 01:37:20;;;;;;;3.80;1.70;;;;;;;1.53;68.44;98978.40;104439;1281;76060;-27
2022/04/13 01:39:51;;;;;;;3.40;1.50;;;;;;;1.43;68.73;98982.11;104513;1280;74631;-27
2022/04/13 01:42:39;;;;;;;2.90;1.30;;;;;;;1.32;69.11;98987.21;104495;1280;62365;-27
2022/04/13 01:45:09;;;;;;;1.90;1.20;;;;;;;1.29;69.10;98982.40;104634;1280;62011;-28
2022/04/13 01:47:38;;;;;;;4.00;1.30;;;;;;;1.53;68.21;98981.33;104437;1280;74532;-27
2022/04/13 01:50:09;;;;;;;2.20;1.10;;;;;;;2.01;66.44;98985.80;104586;1280;75993;-27
2022/04/13 01:52:38;;;;;;;3.40;1.30;;;;;;;2.14;65.62;98986.73;104271;1281;74243;-27
2022/04/13 01:55:07;;;;;;;3.80;1.70;;;;;;;2.01;65.82;98982.73;104310;1281;61234;-27
2022/04/13 01:57:37;;;;;;;1.80;1.00;;;;;;;1.98;65.97;98988.01;104573;1280;61987;-27
2022/04/13 02:00:25;;;;;;;2.70;1.20;;;;;;;1.89;66.06;98989.80;104296;1281;74826;-27
2022/04/13 02:02:54;;;;;;;3.50;1.50;;;;;;;1.87;66.11;98985.95;104611;1277;75932;-27
2022/04/13 02:05:25;;;;;;;2.20;1.30;;;;;;;1.76;66.54;98986.27;104650;1277;74179;-28
2022/04/13 02:07:53;;;;;;;4.50;1.40;;;;;;;1.73;66.68;98980.30;104665;1277;61087;-27
2022/04/13 02:10:42;;;;;;;3.80;1.40;;;;;;;1.69;66.93;98989.55;104518;1277;63306;-27
2022/04/13 02:13:13;;;;;;;3.20;1.30;;;;;;;1.62;67.08;98984.50;104623;1277;72887;-27
2022/04/13 02:15:42;;;;;;;5.30;1.20;;;;;;;1.84;66.43;98986.27;104453;1277;75152;-28
2022/04/13 02:18:11;;;;;;;2.60;1.10;;;;;;;2.14;65.45;98985.20;104688;1276;75006;-27
2022/04/13 02:20:40;;;;;;;3.30;1.40;;;;;;;2.12;65.23;98983.10;104503;1276;61813;-27
2022/04/13 02:23:29;;;;;;;2.90;1.50;;;;;;;2.10;65.19;98988.98;104494;1277;62159;-27
2022/04/13 02:26:02;;;;;;;3.20;1.10;;;;;;;1.93;65.81;98989.60;104487;1276;74783;-27
2022/04/13 02:28:33;;;;;;;2.60;1.10;;;;;;;1.81;66.11;98986.55;104571;1276;75376;-27
2022/04/13 02:31:03;;;;;;;1.90;1.40;;;;;;;1.70;66.28;98984.52;104462;1276;74244;-27
2022/04/13 02:33:32;;;;;;;4.30;1.20;;;;;;;1.68;66.54;98991.83;104407;1277;61074;-27
2022/04/13 02:36:01;;;;;;;3.80;1.40;;;;;;;1.61;66.79;98987.30;104479;1276;61161;-27
2022/04/13 02:38:30;;;;;;;2.30;1.20;;;;;;;1.56;66.78;98990.95;104502;1276;75542;-27
2022/04/13 02:40:59;;;;;;;2.60;1.10;;;;;;;1.52;67.13;98992.66;104266;1280;75919;-27
2022/04/13 02:43:29;;;;;;;2.50;1.20;;;;;;;1.85;66.21;98994.42;104405;1277;74382;-27
2022/04/13 02:45:58;;;;;;;2.00;1.00;;;;;;;1.99;65.57;99002.51;104637;1276;62247;-27
2022/04/13 02:48:28;;;;;;;4.00;1.50;;;;;;;1.94;65.46;98996.23;104634;1277;61188;-27
2022/04/13 02:50:56;;;;;;;2.50;1.00;;;;;;;1.88;65.74;98998.25;104745;1276;73965;-27
2022/04/13 02:53:26;;;;;;;2.70;1.00;;;;;;;1.72;66.46;98997.26;104949;1273;76033;-27
2022/04/13 02:55:56;;;;;;;4.30;1.20;;;;;;;1.60;66.46;99004.79;104775;1273;74292;-28
2022/04/13 02:58:26;;;;;;;1.70;0.90;;;;;;;1.54;66.89;99003.52;104794;1273;61096;-27
2022/04/13 03:00:55;;;;;;;3.60;1.20;;;;;;;1.45;67.09;99003.59;105085;1274;61788;-27
2022/04/13 03:03:24;;;;;;;1.70;0.90;;;;;;;1.40;67.40;99003.83;104953;1273;75532;-29
2022/04/13 03:05:53;;;;;;;1.80;1.10;;;;;;;1.37;67.54;99006.15;104941;1273;76072;-27
2022/04/13 03:08:21;;;;;;;2.60;0.90;;;;;;;1.50;67.28;99008.48;105030;1273;74631;-27
2022/04/13 03:11:10;;;;;;;8.90;1.20;;;;;;;1.89;65.89;99009.34;104986;1273;62586;-27
2022/04/13 03:13:39;;;;;;;3.80;1.40;;;;;;;1.93;65.73;99008.98;105110;1273;61084;-27
2022/04/13 03:16:28;;;;;;;3.70;1.70;;;;;;;1.89;65.71;99015.29;105002;1273;75518;-27
2022/04/13 03:18:57;;;;;;;1.70;1.20;;;;;;;1.74;66.47;99010.00;105150;1273;75798;-27
2022/04/13 03:21:50;;;;;;;3.80;1.20;;;;;;;1.63;66.69;99012.04;104776;1274;74545;-27
2022/04/13 03:24:22;;;;;;;3.00;1.30;;;;;;;1.55;67.01;99009.80;104992;1273;61033;-28
2022/04/13 03:26:51;;;;;;;2.10;1.10;;;;;;;1.46;67.20;99013.30;105161;1273;62147;-27
2022/04/13 03:29:19;;;;;;;1.70;1.10;;;;;;;1.38;67.71;99011.42;105108;1273;74417;-26
2022/04/13 03:31:48;;;;;;;1.80;0.90;;;;;;;1.30;68.00;99013.14;104912;1273;75996;-27
2022/04/13 03:34:20;;;;;;;1.10;0.80;;;;;;;1.20;68.55;99018.00;104723;1273;74303;-27
2022/04/13 03:36:49;;;;;;;5.20;1.10;;;;;;;1.63;67.38;99016.46;104916;1273;61142;-27
2022/04/13 03:39:18;;;;;;;2.20;1.10;;;;;;;1.92;66.25;99016.39;104797;1273;61107;-27
2022/04/13 03:41:46;;;;;;;4.00;1.00;;;;;;;1.81;66.27;99021.15;104969;1273;75297;-27
2022/04/13 03:44:16;;;;;;;2.80;1.20;;;;;;;1.68;66.70;99023.45;104779;1273;75885;-27
2022/04/13 03:46:45;;;;;;;2.30;1.10;;;;;;;1.46;67.57;99012.77;105122;1273;73370;-26
2022/04/13 03:49:14;;;;;;;8.10;1.30;;;;;;;1.30;68.17;99010.40;105107;1273;61196;-27
2022/04/13 03:51:46;;;;;;;1.20;0.90;;;;;;;1.20;68.79;99022.48;104882;1274;61163;-27
2022/04/13 03:54:15;;;;;;;3.50;1.30;;;;;;;1.10;69.32;99014.18;104994;1273;75233;-27
2022/04/13 03:56:45;;;;;;;1.70;1.00;;;;;;;1.02;69.59;99013.98;104723;1273;76222;-27
2022/04/13 03:59:14;;;;;;;2.00;1.00;;;;;;;0.98;70.00;99011.08;104764;1273;74243;-26
2022/04/13 04:01:49;;;;;;;2.00;1.20;;;;;;;1.39;68.95;99021.96;104801;1272;61154;-27
2022/04/13 04:04:18;;;;;;;3.80;1.70;;;;;;;1.62;67.94;99023.55;104918;1273;62351;-29
2022/04/13 04:07:00;;;;;;;4.80;1.60;;;;;;;1.68;67.88;99022.25;104898;1274;75556;-27
2022/04/13 04:09:29;;;;;;;3.10;1.10;;;;;;;1.67;67.83;99017.68;105126;1273;76147;-27
2022/04/13 04:11:58;;;;;;;5.40;2.50;;;;;;;1.57;68.06;99021.02;105093;1273;72276;-27
2022/04/13 04:14:27;;;;;;;5.70;1.50;;;;;;;1.51;68.63;99023.00;105055;1273;61117;-28
2022/04/13 04:16:56;;;;;;;3.70;1.00;;;;;;;1.50;68.18;99020.49;105109;1273;61121;-28
2022/04/13 04:19:44;;;;;;;2.30;1.20;;;;;;;1.55;68.12;99022.46;104891;1273;75652;-27
2022/04/13 04:22:15;;;;;;;5.10;1.50;;;;;;;1.54;68.45;99025.77;104946;1273;76148;-27
2022/04/13 04:24:43;;;;;;;2.30;1.30;;;;;;;1.65;68.01;99019.45;104769;1273;74235;-27
2022/04/13 04:27:26;;;;;;;2.30;0.90;;;;;;;2.15;66.12;99017.83;104967;1273;61235;-27
2022/04/13 04:29:55;;;;;;;1.60;0.90;;;;;;;2.42;64.93;99018.29;104784;1273;62093;-27
2022/04/13 04:32:25;;;;;;;2.80;1.10;;;;;;;2.33;65.14;99017.90;104807;1273;74281;-27
2022/04/13 04:34:54;;;;;;;2.50;1.10;;;;;;;2.27;65.13;99016.77;104907;1272;76254;-27
2022/04/13 04:37:24;;;;;;;4.10;1.20;;;;;;;2.21;65.29;99012.64;105017;1273;73391;-28
2022/04/13 04:39:53;;;;;;;3.80;1.50;;;;;;;2.24;65.15;99017.44;104772;1273;61029;-27
2022/04/13 04:42:22;;;;;;;3.50;1.00;;;;;;;2.22;65.57;99020.81;105097;1273;61825;-27
2022/04/13 04:44:58;;;;;;;1.80;1.10;;;;;;;2.23;65.36;99020.22;105000;1273;75272;-27
2022/04/13 04:47:47;;;;;;;4.20;1.10;;;;;;;2.24;65.49;99021.73;104760;1273;75166;-28
2022/04/13 04:50:20;;;;;;;4.10;1.00;;;;;;;2.27;64.95;99025.36;105119;1273;72617;-28
2022/04/13 04:52:49;;;;;;;2.10;1.10;;;;;;;2.30;64.87;99025.38;104976;1273;61096;-27
2022/04/13 04:55:19;;;;;;;2.10;1.10;;;;;;;2.33;64.34;99020.98;105139;1273;61017;-27
2022/04/13 04:57:48;;;;;;;27.70;2.10;;;;;;;2.38;64.37;99025.69;105110;1272;75563;-27
2022/04/13 05:00:19;;;;;;;4.30;1.10;;;;;;;2.47;64.21;99026.10;105039;1273;76112;-28
2022/04/13 05:02:49;;;;;;;1.90;1.20;;;;;;;2.56;63.86;99027.77;104675;1273;74473;-27
2022/04/13 05:05:18;;;;;;;1.80;1.20;;;;;;;2.58;63.46;99025.27;104659;1274;61084;-27
2022/04/13 05:07:47;;;;;;;1.90;1.10;;;;;;;2.67;63.53;99029.29;104760;1273;61571;-27
2022/04/13 05:10:26;;;;;;;1.70;1.10;;;;;;;2.76;62.81;99025.58;104730;1273;75846;-27
2022/04/13 05:12:57;;;;;;;4.10;1.10;;;;;;;2.83;62.09;99028.33;104765;1273;76272;-27
2022/04/13 05:15:29;;;;;;;1.20;0.90;;;;;;;2.91;61.60;99025.52;104705;1273;75023;-27
2022/04/13 05:17:58;;;;;;;2.00;1.20;;;;;;;2.95;61.72;99033.23;104739;1272;61346;-27
2022/04/13 05:20:36;;;;;;;3.90;1.30;;;;;;;2.98;61.39;99021.25;104771;1271;62273;-27
2022/04/13 05:23:06;;;;;;;2.80;1.10;;;;;;;3.04;61.33;99024.73;104848;1271;76619;-28
2022/04/13 05:25:35;;;;;;;2.00;1.00;;;;;;;3.06;61.31;99025.11;104776;1274;76008;-27
2022/04/13 05:28:23;;;;;;;2.40;0.70;;;;;;;3.09;60.84;99026.66;104852;1272;74796;-27
2022/04/13 05:30:52;;;;;;;2.00;1.00;;;;;;;3.21;61.00;99024.52;104727;1274;61186;-27
2022/04/13 05:33:22;;;;;;;2.40;1.00;;;;;;;3.30;60.81;99030.95;104797;1271;62016;-27
2022/04/13 05:35:51;;;;;;;3.10;1.20;;;;;;;3.42;60.50;99015.21;104816;1271;74357;-27
2022/04/13 05:38:19;;;;;;;5.70;1.00;;;;;;;3.52;60.45;99025.49;104973;1271;75986;-27
2022/04/13 05:40:48;;;;;;;2.30;1.20;;;;;;;3.59;59.71;99014.16;104858;1272;74686;-26
2022/04/13 05:43:17;;;;;;;3.20;0.90;;;;;;;3.74;59.82;99022.45;104743;1274;61042;-27
2022/04/13 05:45:51;;;;;;;4.50;1.20;;;;;;;3.85;59.36;99018.97;104802;1271;61119;-26
2022/04/13 05:48:24;;;;;;;2.80;1.40;;;;;;;3.95;58.52;99022.03;104798;1271;74405;-27
2022/04/13 05:51:03;;;;;;;2.60;1.60;;;;;;;4.03;57.84;99024.51;104784;1271;75789;-27
2022/04/13 05:53:31;;;;;;;3.60;1.30;;;;;;;4.12;57.13;99021.47;104801;1271;73614;-27
2022/04/13 05:56:00;;;;;;;3.30;1.00;;;;;;;4.18;56.42;99017.84;104832;1273;61249;-27
2022/04/13 05:58:32;;;;;;;3.10;1.10;;;;;;;4.34;56.27;99017.70;104771;1274;61105;-27
2022/04/13 06:01:00;;;;;;;1.30;1.00;;;;;;;4.36;55.84;99024.79;105032;1271;75540;-27
2022/04/13 06:03:30;;;;;;;1.20;0.70;;;;;;;4.45;55.40;99022.69;105099;1271;75788;-26
2022/04/13 06:06:11;;;;;;;1.40;0.80;;;;;;;4.52;54.69;99016.33;104862;1272;74235;-26
2022/04/13 06:08:40;;;;;;;3.30;1.30;;;;;;;4.56;54.33;99003.01;104852;1274;61133;-26
2022/04/13 06:11:21;;;;;;;4.40;1.50;;;;;;;4.63;54.09;99018.30;104767;1274;61136;-27
2022/04/13 06:13:50;;;;;;;5.80;1.50;;;;;;;4.71;54.06;99021.56;104912;1273;74032;-27
2022/04/13 06:16:23;;;;;;;;;;;;;;;4.67;53.55;99019.23;104752;1274;75970;-27
2022/04/13 06:18:53;;;;;;;2.10;0.80;;;;;;;4.77;53.32;99009.54;104675;1273;74329;-27
2022/04/13 06:21:21;;;;;;;1.30;0.90;;;;;;;4.84;52.91;99004.89;104713;1273;61227;-27
2022/04/13 06:23:50;;;;;;;8.40;1.10;;;;;;;4.90;52.63;99008.11;104659;1273;61040;-27
2022/04/13 06:26:19;;;;;;;3.20;1.10;;;;;;;4.92;52.78;99007.27;104696;1273;75514;-27
2022/04/13 06:28:51;;;;;;;2.50;1.00;;;;;;;5.02;52.37;99015.83;104656;1273;76157;-27
2022/04/13 06:31:23;;;;;;;1.70;0.90;;;;;;;5.15;52.26;99021.13;104636;1273;74677;-26
2022/04/13 06:33:52;;;;;;;3.00;1.60;;;;;;;5.18;51.80;99022.84;104631;1274;61152;-25
2022/04/13 06:36:21;;;;;;;4.00;0.90;;;;;;;5.26;51.66;99023.40;104625;1274;61005;-26
2022/04/13 06:38:49;;;;;;;2.50;0.90;;;;;;;5.49;51.62;99016.70;104637;1273;75590;-26
2022/04/13 06:41:21;;;;;;;2.30;1.30;;;;;;;5.46;50.67;99010.35;104759;1273;75977;-27
2022/04/13 06:43:52;;;;;;;1.20;0.90;;;;;;;5.40;50.85;99011.19;104912;1273;73643;-27
2022/04/13 06:46:20;;;;;;;3.80;1.30;;;;;;;5.60;50.58;99016.86;104950;1273;61083;-27
2022/04/13 06:48:49;;;;;;;3.60;1.40;;;;;;;5.66;50.58;99020.14;104723;1273;61823;-28
2022/04/13 06:51:18;;;;;;;1.90;1.10;;;;;;;5.75;50.27;99013.70;104727;1273;74647;-27
2022/04/13 06:53:47;;;;;;;2.40;1.00;;;;;;;5.88;49.96;99020.00;104809;1273;74945;-27
2022/04/13 06:56:16;;;;;;;3.90;1.20;;;;;;;5.87;49.25;99022.46;104596;1274;76481;-27
2022/04/13 06:58:48;;;;;;;4.50;1.20;;;;;;;5.91;49.67;99031.54;104650;1273;61154;-26
2022/04/13 07:01:17;;;;;;;2.60;1.20;;;;;;;5.98;49.07;99023.33;104799;1273;61038;-27
2022/04/13 07:03:47;;;;;;;3.00;0.90;;;;;;;6.23;49.24;99029.06;104753;1273;75553;-29
2022/04/13 07:06:18;;;;;;;2.40;0.90;;;;;;;6.28;48.29;99027.68;104782;1273;76383;-29
2022/04/13 07:09:08;;;;;;;47.30;3.20;;;;;;;6.32;47.87;99020.21;104947;1273;74483;-28
2022/04/13 07:11:38;;;;;;;3.30;1.30;;;;;;;6.30;47.10;99026.52;104988;1273;61142;-27
2022/04/13 07:14:07;;;;;;;2.90;1.30;;;;;;;6.43;46.87;99035.00;105000;1273;61989;-27
2022/04/13 07:16:49;;;;;;;2.30;0.80;;;;;;;6.47;46.38;99035.27;104962;1273;75518;-26
2022/04/13 07:19:21;;;;;;;5.40;1.80;;;;;;;6.52;45.88;99032.02;105059;1273;75752;-26
2022/04/13 07:21:50;;;;;;;5.30;1.70;;;;;;;6.70;46.00;99033.95;105085;1273;74401;-26
2022/04/13 07:24:27;;;;;;;4.50;2.20;;;;;;;6.82;45.84;99034.39;105108;1273;61742;-26
2022/04/13 07:27:01;;;;;;;7.90;1.70;;;;;;;6.60;45.44;99026.68;104970;1273;61069;-26
2022/04/13 07:29:30;;;;;;;7.40;1.90;;;;;;;6.90;45.90;99036.61;105056;1273;74584;-26
2022/04/13 07:32:02;;;;;;;4.00;1.90;;;;;;;7.02;44.82;99037.02;104641;1274;75968;-25
2022/04/13 07:34:40;;;;;;;4.90;1.70;;;;;;;7.00;44.54;99031.14;104746;1273;74459;-25
2022/04/13 07:37:10;;;;;;;5.70;1.50;;;;;;;7.07;44.70;99028.08;104785;1272;61340;-27
2022/04/13 07:39:59;;;;;;;2.30;1.30;;;;;;;7.26;44.64;99029.08;104728;1273;61544;-25
2022/04/13 07:47:16;;;;;;;4.40;1.50;;;;;;;7.21;43.42;99039.36;105096;1273;75700;-26
2022/04/13 07:49:46;;;;;;;8.80;1.60;;;;;;;7.35;43.21;99038.95;104978;1273;74429;-25
2022/04/13 07:52:16;;;;;;;55.50;4.60;;;;;;;7.29;43.03;99038.17;104674;1273;61118;-26
2022/04/13 07:54:53;;;;;;;7.00;1.60;;;;;;;7.24;42.42;99040.95;105073;1273;62075;-26
2022/04/13 07:57:23;;;;;;;8.10;1.40;;;;;;;7.17;42.13;99041.70;104798;1273;74673;-26
2022/04/13 07:59:56;;;;;;;2.70;0.90;;;;;;;7.22;41.93;99028.47;104733;1273;75844;-27
2022/04/13 08:02:37;;;;;;;15.30;2.30;;;;;;;7.23;41.26;99043.39;104715;1273;74620;-26
2022/04/13 08:05:08;;;;;;;2.50;1.10;;;;;;;7.12;41.11;99041.59;104563;1274;61186;-27
2022/04/13 08:07:40;;;;;;;2.60;1.00;;;;;;;7.38;42.24;99046.58;104721;1273;61054;-26
2022/04/13 08:10:08;;;;;;;1.30;1.00;;;;;;;7.50;41.83;99039.66;105034;1273;75380;-26
2022/04/13 08:12:39;;;;;;;3.70;1.10;;;;;;;7.43;42.48;99048.28;105095;1273;76011;-26
2022/04/13 08:15:09;;;;;;;3.40;1.10;;;;;;;7.50;42.28;99043.83;104834;1273;74198;-26
2022/04/13 08:17:40;;;;;;;9.10;2.00;;;;;;;7.28;42.23;99047.02;104774;1274;61141;-26
2022/04/13 08:20:14;;;;;;;11.40;1.90;;;;;;;7.28;41.97;99044.13;104716;1274;61982;-26
2022/04/13 08:22:43;;;;;;;1.80;1.30;;;;;;;7.22;41.91;99043.61;104731;1274;75651;-26
2022/04/13 08:25:32;;;;;;;3.70;1.60;;;;;;;7.39;42.20;99044.42;104818;1271;77077;-26
2022/04/13 08:28:01;;;;;;;6.00;1.90;;;;;;;7.48;42.17;99048.48;104798;1274;74408;-26
2022/04/13 08:30:30;;;;;;;5.10;1.60;;;;;;;7.63;41.48;99034.61;104789;1271;61361;-26
2022/04/13 08:33:01;;;;;;;5.70;2.60;;;;;;;7.93;41.38;99044.29;105048;1273;61895;-26
2022/04/13 08:35:40;;;;;;;6.10;1.90;;;;;;;7.92;39.98;99036.97;105055;1273;75535;-26
2022/04/13 08:38:09;;;;;;;42.40;4.90;;;;;;;7.98;39.01;99025.33;104720;1274;76043;-26
2022/04/13 08:40:44;;;;;;;3.70;1.20;;;;;;;7.98;37.95;99029.98;104761;1274;73977;-25
2022/04/13 08:43:14;;;;;;;4.90;1.20;;;;;;;8.22;38.49;99023.63;104605;1274;62454;-25
2022/04/13 08:45:54;;;;;;;5.80;1.10;;;;;;;8.34;38.47;99027.63;104625;1274;62306;-26
2022/04/13 08:48:28;;;;;;;9.10;1.40;;;;;;;8.19;37.38;99026.58;105029;1274;75685;-26
2022/04/13 08:51:03;;;;;;;5.50;0.90;;;;;;;8.32;37.09;99025.64;105045;1274;75877;-26
2022/04/13 08:54:08;;;;;;;5.90;0.90;;;;;;;8.50;35.56;99025.44;104739;1274;73131;-26
2022/04/13 08:56:42;;;;;;;9.10;1.50;;;;;;;8.34;33.02;99031.73;104633;1274;61812;-26
2022/04/13 08:59:52;;;;;;;21.90;2.10;;;;;;;8.31;31.69;99031.23;104682;1274;61099;-26
2022/04/13 09:02:38;;;;;;;2.50;1.00;;;;;;;8.15;31.44;99036.20;104805;1274;75538;-26
2022/04/13 09:05:14;;;;;;;2.30;0.70;;;;;;;8.24;31.92;99036.42;104624;1274;75049;-26
2022/04/13 09:07:46;;;;;;;4.30;0.70;;;;;;;8.33;31.53;99036.70;104626;1274;72787;-26
2022/04/13 09:10:26;;;;;;;39.30;3.00;;;;;;;8.29;31.55;99036.43;104584;1274;61111;-26
2022/04/13 09:12:55;;;;;;;5.70;0.90;;;;;;;8.23;30.69;99041.36;104834;1274;64049;-27
2022/04/13 09:15:40;;;;;;;9.10;2.00;;;;;;;8.18;30.29;99028.58;104702;1274;75542;-25
2022/04/13 09:18:14;;;;;;;7.50;3.70;;;;;;;8.30;31.05;99044.49;104732;1274;73786;-27
2022/04/13 09:20:43;;;;;;;5.00;1.10;;;;;;;8.46;31.31;99049.45;104768;1274;73241;-28
2022/04/13 09:23:15;;;;;;;4.20;0.80;;;;;;;8.52;31.48;99041.71;104822;1273;61226;-26
2022/04/13 09:25:45;;;;;;;6.20;1.20;;;;;;;8.41;31.69;99044.40;104837;1272;62100;-25
2022/04/13 09:28:16;;;;;;;4.60;0.90;;;;;;;8.38;31.97;99049.45;104821;1274;75541;-28
2022/04/13 09:30:48;;;;;;;5.50;1.10;;;;;;;8.22;31.72;99037.96;104640;1274;74948;-26
2022/04/13 09:33:19;;;;;;;4.90;1.20;;;;;;;8.02;31.54;99037.44;104793;1274;74572;-26
2022/04/13 09:35:50;;;;;;;2.80;0.90;;;;;;;7.95;32.00;99048.52;104887;1274;61837;-27
2022/04/13 09:38:19;;;;;;;42.80;3.50;;;;;;;7.79;31.72;99045.62;104791;1274;62109;-26
2022/04/13 09:40:52;;;;;;;6.70;2.90;;;;;;;7.92;31.80;99055.64;104737;1274;75537;-27
2022/04/13 09:43:24;;;;;;;6.30;1.50;;;;;;;7.85;31.93;99049.90;104791;1274;74857;-26
2022/04/13 09:45:57;;;;;;;4.10;1.40;;;;;;;7.87;32.45;99050.59;104846;1274;74447;-26
2022/04/13 09:48:46;;;;;;;2.30;1.00;;;;;;;7.95;32.52;99053.89;104779;1274;62342;-27
2022/04/13 09:51:15;;;;;;;7.80;1.10;;;;;;;7.84;32.39;99056.70;104716;1274;61870;-26
2022/04/13 09:53:45;;;;;;;3.90;1.20;;;;;;;7.78;32.35;99057.46;104681;1273;76148;-27
2022/04/13 09:56:18;;;;;;;4.10;1.10;;;;;;;7.77;32.96;99056.35;104658;1274;75865;-27
2022/04/13 09:58:46;;;;;;;2.50;0.80;;;;;;;7.63;32.72;99043.45;104655;1273;73244;-27
2022/04/13 10:01:15;;;;;;;20.50;2.20;;;;;;;7.59;32.15;99056.70;104607;1274;61141;-27
2022/04/13 10:03:55;;;;;;;5.90;1.10;;;;;;;7.62;32.88;99062.70;104649;1274;61930;-27
2022/04/13 10:06:28;;;;;;;1.50;0.80;;;;;;;7.66;33.18;99067.80;104810;1274;74557;-26
2022/04/13 10:08:59;;;;;;;2.90;1.00;;;;;;;7.70;33.41;99065.65;104682;1274;73657;-26
2022/04/13 10:11:59;;;;;;;4.60;1.20;;;;;;;7.76;33.61;99071.05;104885;1274;75369;-26
2022/04/13 10:14:28;;;;;;;5.90;1.00;;;;;;;7.62;33.20;99056.64;104776;1273;61279;-26
2022/04/13 10:17:20;;;;;;;2.00;0.90;;;;;;;7.61;33.07;99071.58;105051;1272;61830;-26
2022/04/13 10:19:58;;;;;;;1.60;1.20;;;;;;;7.62;33.38;99079.16;104641;1273;75431;-26
2022/04/13 10:22:27;;;;;;;8.00;1.30;;;;;;;7.61;33.50;99064.20;104662;1274;76033;-26
2022/04/13 10:25:12;;;;;;;3.40;1.20;;;;;;;7.47;33.60;99077.04;104763;1274;74451;-26
2022/04/13 10:27:44;;;;;;;3.00;1.50;;;;;;;7.49;33.90;99083.48;104643;1274;61243;-26
2022/04/13 10:30:14;;;;;;;4.70;1.70;;;;;;;7.48;33.97;99081.48;104638;1274;60997;-26
2022/04/13 10:32:45;;;;;;;3.00;0.70;;;;;;;7.50;34.02;99080.83;104360;1274;375447;-26
2022/04/13 10:35:14;;;;;;;2.80;1.60;;;;;;;7.50;34.46;99085.64;104664;1274;76082;-28
2022/04/13 10:37:43;;;;;;;7.60;2.40;;;;;;;7.54;34.18;99078.44;104867;1274;72330;-26
2022/04/13 10:40:12;;;;;;;6.70;0.90;;;;;;;7.60;34.67;99087.55;104835;1272;61303;-26
2022/04/13 10:42:40;;;;;;;1.70;0.60;;;;;;;7.59;34.97;99087.96;104858;1274;61803;-25
2022/04/13 10:45:10;;;;;;;1.80;0.70;;;;;;;7.61;35.27;99086.98;104764;1274;75285;-26
2022/04/13 10:48:05;;;;;;;2.90;1.50;;;;;;;7.61;35.25;99089.95;104728;1274;75754;-26
2022/04/13 10:50:37;;;;;;;7.30;1.20;;;;;;;7.63;35.63;99089.27;104701;1274;75207;-26
2022/04/13 10:53:29;;;;;;;8.40;2.80;;;;;;;7.64;35.83;99096.64;104695;1274;61147;-26
2022/04/13 10:56:04;;;;;;;3.20;1.40;;;;;;;7.69;36.28;99087.80;104752;1274;61224;-26
2022/04/13 10:58:47;;;;;;;2.30;1.10;;;;;;;7.61;36.09;99080.73;104765;1273;75541;-28
2022/04/13 11:01:18;;;;;;;4.50;1.40;;;;;;;7.60;36.40;99084.45;104688;1274;76009;-27
2022/04/13 11:03:50;;;;;;;3.50;1.00;;;;;;;7.63;36.28;99080.95;104701;1274;74345;-27
2022/04/13 11:06:18;;;;;;;5.60;1.30;;;;;;;7.64;36.02;99085.05;104777;1271;61221;-27
2022/04/13 11:09:16;;;;;;;1.50;0.90;;;;;;;7.67;36.32;99078.83;104745;1274;61181;-27
2022/04/13 11:11:45;;;;;;;1.30;0.80;;;;;;;7.78;36.46;99076.69;104517;1274;75564;-26
2022/04/13 11:14:21;;;;;;;2.10;0.80;;;;;;;7.79;36.01;99073.45;104654;1274;76169;-26
2022/04/13 11:17:15;;;;;;;7.30;1.40;;;;;;;7.90;36.18;99078.40;104733;1273;73368;-26
2022/04/13 11:19:45;;;;;;;5.10;1.10;;;;;;;7.92;35.90;99080.55;104572;1274;61157;-26
2022/04/13 11:22:18;;;;;;;1.70;0.80;;;;;;;7.92;35.94;99075.01;104762;1273;62032;-25
2022/04/13 11:24:50;;;;;;;9.60;1.20;;;;;;;8.08;36.23;99077.02;104856;1273;75675;-26
2022/04/13 11:27:19;;;;;;;2.20;1.00;;;;;;;8.11;36.21;99081.65;104896;1273;76096;-26
2022/04/13 11:30:00;;;;;;;1.90;1.20;;;;;;;8.15;36.13;99075.59;104692;1273;74217;-26
2022/04/13 11:32:33;;;;;;;2.20;1.00;;;;;;;8.26;36.32;99086.23;104556;1276;61161;-26
2022/04/13 11:35:03;;;;;;;2.30;0.70;;;;;;;8.31;35.84;99078.30;104690;1274;62026;-26
2022/04/13 11:37:35;;;;;;;4.30;1.10;;;;;;;8.40;36.17;99079.56;104745;1274;74447;-26
2022/04/13 11:40:07;;;;;;;3.70;2.40;;;;;;;8.40;35.78;99079.38;104686;1273;76111;-26
2022/04/13 11:42:45;;;;;;;45.90;3.50;;;;;;;8.56;36.13;99084.34;104547;1276;74403;-26
2022/04/13 11:45:15;;;;;;;5.30;2.10;;;;;;;8.63;35.37;99084.02;104740;1273;61115;-26
2022/04/13 11:48:10;;;;;;;9.80;3.60;;;;;;;8.68;34.98;99080.02;104602;1275;61125;-26
2022/04/13 11:50:50;;;;;;;3.30;1.30;;;;;;;8.74;34.64;99088.92;104628;1276;75458;-26
2022/04/13 11:53:20;;;;;;;5.70;1.90;;;;;;;8.81;34.25;99084.80;104610;1276;75154;-26
2022/04/13 11:55:49;;;;;;;3.40;1.10;;;;;;;8.94;34.27;99086.98;104771;1273;73249;-26
2022/04/13 11:58:22;;;;;;;1.40;0.80;;;;;;;8.97;34.30;99073.73;104806;1273;61156;-29
2022/04/13 12:00:55;;;;;;;11.90;2.90;;;;;;;9.14;33.25;99087.52;104704;1273;61327;-26
2022/04/13 12:03:32;;;;;;;3.80;1.40;;;;;;;9.22;31.62;99081.08;104726;1273;75806;-25
2022/04/13 12:06:15;;;;;;;26.10;10.00;;;;;;;9.29;31.31;99083.65;104732;1273;76146;-28